sensor_id;sensor_type;location;lat;lon;timestamp;P1;durP1;ratioP1;P2;durP2;ratioP2
67867;SDS011;54672;46.096;14.470;2023-04-16T00:00:01;23.98;;;13.07;;
67867;SDS011;54672;46.096;14.470;2023-04-16T00:02:28;25.27;;;11.80;;
67867;SDS011;54672;46.096;14.470;2023-04-16T00:04:54;22.45;;;11.48;;
67867;SDS011;54672;46.096;14.470;2023-04-16T00:07:20;21.80;;;11.73;;
67867;SDS011;54672;46.096;14.470;2023-04-16T00:09:45;21.90;;;11.20;;
67867;SDS011;54672;46.096;14.470;2023-04-16T00:12:11;15.15;;;8.55;;
67867;SDS011;54672;46.096;14.470;2023-04-16T00:14:36;15.80;;;7.68;;
67867;SDS011;54672;46.096;14.470;2023-04-16T00:17:02;15.95;;;7.93;;
67867;SDS011;54672;46.096;14.470;2023-04-16T00:19:27;15.10;;;7.00;;
67867;SDS011;54672;46.096;14.470;2023-04-16T00:21:53;10.45;;;6.15;;
67867;SDS011;54672;46.096;14.470;2023-04-16T00:24:18;11.10;;;6.13;;
67867;SDS011;54672;46.096;14.470;2023-04-16T00:26:44;10.45;;;5.68;;
67867;SDS011;54672;46.096;14.470;2023-04-16T00:29:10;10.77;;;5.63;;
67867;SDS011;54672;46.096;14.470;2023-04-16T00:31:36;14.30;;;6.13;;
67867;SDS011;54672;46.096;14.470;2023-04-16T00:34:02;9.18;;;4.80;;
67867;SDS011;54672;46.096;14.470;2023-04-16T00:36:27;10.40;;;5.32;;
67867;SDS011;54672;46.096;14.470;2023-04-16T00:38:53;11.10;;;4.70;;
67867;SDS011;54672;46.096;14.470;2023-04-16T00:41:19;12.75;;;5.53;;
67867;SDS011;54672;46.096;14.470;2023-04-16T00:43:45;9.93;;;5.43;;
67867;SDS011;54672;46.096;14.470;2023-04-16T00:46:11;11.18;;;5.70;;
67867;SDS011;54672;46.096;14.470;2023-04-16T00:48:37;7.63;;;4.43;;
67867;SDS011;54672;46.096;14.470;2023-04-16T00:51:04;10.43;;;4.70;;
67867;SDS011;54672;46.096;14.470;2023-04-16T00:53:31;8.32;;;4.97;;
67867;SDS011;54672;46.096;14.470;2023-04-16T00:55:58;10.00;;;4.68;;
67867;SDS011;54672;46.096;14.470;2023-04-16T00:58:24;9.20;;;5.03;;
67867;SDS011;54672;46.096;14.470;2023-04-16T01:00:50;8.32;;;4.72;;
67867;SDS011;54672;46.096;14.470;2023-04-16T01:03:16;8.00;;;4.72;;
67867;SDS011;54672;46.096;14.470;2023-04-16T01:05:41;9.68;;;5.07;;
67867;SDS011;54672;46.096;14.470;2023-04-16T01:08:14;10.18;;;5.07;;
67867;SDS011;54672;46.096;14.470;2023-04-16T01:10:46;9.32;;;4.72;;
67867;SDS011;54672;46.096;14.470;2023-04-16T01:13:12;8.43;;;4.65;;
67867;SDS011;54672;46.096;14.470;2023-04-16T01:15:37;7.80;;;4.20;;
67867;SDS011;54672;46.096;14.470;2023-04-16T01:18:16;9.48;;;5.05;;
67867;SDS011;54672;46.096;14.470;2023-04-16T01:20:43;9.57;;;5.03;;
67867;SDS011;54672;46.096;14.470;2023-04-16T01:23:09;8.73;;;4.95;;
67867;SDS011;54672;46.096;14.470;2023-04-16T01:25:35;10.55;;;5.65;;
67867;SDS011;54672;46.096;14.470;2023-04-16T01:28:00;9.80;;;5.25;;
67867;SDS011;54672;46.096;14.470;2023-04-16T01:30:26;10.70;;;5.35;;
67867;SDS011;54672;46.096;14.470;2023-04-16T01:32:52;10.35;;;5.53;;
67867;SDS011;54672;46.096;14.470;2023-04-16T01:35:17;11.65;;;6.75;;
67867;SDS011;54672;46.096;14.470;2023-04-16T01:37:43;12.63;;;6.05;;
67867;SDS011;54672;46.096;14.470;2023-04-16T01:40:09;13.98;;;6.28;;
67867;SDS011;54672;46.096;14.470;2023-04-16T01:42:34;12.07;;;6.03;;
67867;SDS011;54672;46.096;14.470;2023-04-16T01:45:01;11.85;;;6.80;;
67867;SDS011;54672;46.096;14.470;2023-04-16T01:47:26;11.98;;;6.45;;
67867;SDS011;54672;46.096;14.470;2023-04-16T01:49:51;14.48;;;7.03;;
67867;SDS011;54672;46.096;14.470;2023-04-16T01:52:17;12.88;;;6.72;;
67867;SDS011;54672;46.096;14.470;2023-04-16T01:54:43;13.98;;;7.00;;
67867;SDS011;54672;46.096;14.470;2023-04-16T01:57:08;14.15;;;6.93;;
67867;SDS011;54672;46.096;14.470;2023-04-16T01:59:33;13.90;;;7.47;;
67867;SDS011;54672;46.096;14.470;2023-04-16T02:02:04;13.95;;;8.25;;
67867;SDS011;54672;46.096;14.470;2023-04-16T02:04:32;14.35;;;7.72;;
67867;SDS011;54672;46.096;14.470;2023-04-16T02:06:58;15.73;;;7.78;;
67867;SDS011;54672;46.096;14.470;2023-04-16T02:09:23;13.13;;;7.13;;
67867;SDS011;54672;46.096;14.470;2023-04-16T02:11:49;16.35;;;7.07;;
67867;SDS011;54672;46.096;14.470;2023-04-16T02:14:14;15.57;;;7.65;;
67867;SDS011;54672;46.096;14.470;2023-04-16T02:16:40;13.40;;;7.78;;
67867;SDS011;54672;46.096;14.470;2023-04-16T02:19:05;13.02;;;7.45;;
67867;SDS011;54672;46.096;14.470;2023-04-16T02:21:30;12.52;;;7.07;;
67867;SDS011;54672;46.096;14.470;2023-04-16T02:23:56;14.48;;;7.63;;
67867;SDS011;54672;46.096;14.470;2023-04-16T02:26:21;14.80;;;7.43;;
67867;SDS011;54672;46.096;14.470;2023-04-16T02:28:47;13.82;;;7.13;;
67867;SDS011;54672;46.096;14.470;2023-04-16T02:31:13;15.88;;;7.70;;
67867;SDS011;54672;46.096;14.470;2023-04-16T02:33:41;15.25;;;8.45;;
67867;SDS011;54672;46.096;14.470;2023-04-16T02:36:07;18.05;;;9.48;;
67867;SDS011;54672;46.096;14.470;2023-04-16T02:38:35;18.80;;;9.00;;
67867;SDS011;54672;46.096;14.470;2023-04-16T02:41:01;16.02;;;8.48;;
67867;SDS011;54672;46.096;14.470;2023-04-16T02:43:26;16.75;;;7.82;;
67867;SDS011;54672;46.096;14.470;2023-04-16T02:45:52;17.50;;;9.32;;
67867;SDS011;54672;46.096;14.470;2023-04-16T02:48:17;17.40;;;8.75;;
67867;SDS011;54672;46.096;14.470;2023-04-16T02:50:43;16.15;;;8.10;;
67867;SDS011;54672;46.096;14.470;2023-04-16T02:53:08;18.33;;;8.85;;
67867;SDS011;54672;46.096;14.470;2023-04-16T02:55:34;16.40;;;8.07;;
67867;SDS011;54672;46.096;14.470;2023-04-16T02:58:00;17.20;;;8.50;;
67867;SDS011;54672;46.096;14.470;2023-04-16T03:00:25;15.75;;;8.43;;
67867;SDS011;54672;46.096;14.470;2023-04-16T03:02:51;15.73;;;9.00;;
67867;SDS011;54672;46.096;14.470;2023-04-16T03:05:16;17.23;;;9.27;;
67867;SDS011;54672;46.096;14.470;2023-04-16T03:07:42;17.10;;;8.43;;
67867;SDS011;54672;46.096;14.470;2023-04-16T03:10:07;15.15;;;7.25;;
67867;SDS011;54672;46.096;14.470;2023-04-16T03:12:34;14.05;;;7.43;;
67867;SDS011;54672;46.096;14.470;2023-04-16T03:15:00;18.73;;;8.38;;
67867;SDS011;54672;46.096;14.470;2023-04-16T03:17:25;14.82;;;8.13;;
67867;SDS011;54672;46.096;14.470;2023-04-16T03:19:51;15.43;;;8.63;;
67867;SDS011;54672;46.096;14.470;2023-04-16T03:22:16;15.52;;;7.38;;
67867;SDS011;54672;46.096;14.470;2023-04-16T03:24:42;15.55;;;7.70;;
67867;SDS011;54672;46.096;14.470;2023-04-16T03:27:07;14.48;;;7.88;;
67867;SDS011;54672;46.096;14.470;2023-04-16T03:29:35;14.68;;;8.15;;
67867;SDS011;54672;46.096;14.470;2023-04-16T03:32:01;15.52;;;7.93;;
67867;SDS011;54672;46.096;14.470;2023-04-16T03:34:27;18.23;;;8.98;;
67867;SDS011;54672;46.096;14.470;2023-04-16T03:36:52;13.88;;;7.85;;
67867;SDS011;54672;46.096;14.470;2023-04-16T03:39:17;16.73;;;8.18;;
67867;SDS011;54672;46.096;14.470;2023-04-16T03:41:43;16.02;;;7.20;;
67867;SDS011;54672;46.096;14.470;2023-04-16T03:44:08;14.45;;;8.05;;
67867;SDS011;54672;46.096;14.470;2023-04-16T03:46:34;15.65;;;7.53;;
67867;SDS011;54672;46.096;14.470;2023-04-16T03:49:00;13.48;;;6.85;;
67867;SDS011;54672;46.096;14.470;2023-04-16T03:51:25;13.88;;;7.55;;
67867;SDS011;54672;46.096;14.470;2023-04-16T03:53:51;10.82;;;6.28;;
67867;SDS011;54672;46.096;14.470;2023-04-16T03:56:16;14.02;;;6.63;;
67867;SDS011;54672;46.096;14.470;2023-04-16T03:58:42;12.20;;;6.80;;
67867;SDS011;54672;46.096;14.470;2023-04-16T04:01:07;14.00;;;7.70;;
67867;SDS011;54672;46.096;14.470;2023-04-16T04:03:32;12.00;;;6.78;;
67867;SDS011;54672;46.096;14.470;2023-04-16T04:05:58;12.18;;;6.30;;
67867;SDS011;54672;46.096;14.470;2023-04-16T04:08:23;12.60;;;6.82;;
67867;SDS011;54672;46.096;14.470;2023-04-16T04:10:50;13.73;;;7.30;;
67867;SDS011;54672;46.096;14.470;2023-04-16T04:13:15;14.48;;;7.63;;
67867;SDS011;54672;46.096;14.470;2023-04-16T04:15:40;13.80;;;7.43;;
67867;SDS011;54672;46.096;14.470;2023-04-16T04:18:06;17.42;;;8.40;;
67867;SDS011;54672;46.096;14.470;2023-04-16T04:20:31;15.50;;;7.07;;
67867;SDS011;54672;46.096;14.470;2023-04-16T04:22:57;38.20;;;14.90;;
67867;SDS011;54672;46.096;14.470;2023-04-16T04:25:22;26.65;;;12.65;;
67867;SDS011;54672;46.096;14.470;2023-04-16T04:27:48;30.08;;;12.88;;
67867;SDS011;54672;46.096;14.470;2023-04-16T04:30:13;19.77;;;9.35;;
67867;SDS011;54672;46.096;14.470;2023-04-16T04:32:39;19.00;;;9.50;;
67867;SDS011;54672;46.096;14.470;2023-04-16T04:35:05;14.38;;;8.00;;
67867;SDS011;54672;46.096;14.470;2023-04-16T04:37:30;17.00;;;8.32;;
67867;SDS011;54672;46.096;14.470;2023-04-16T04:39:56;13.27;;;7.40;;
67867;SDS011;54672;46.096;14.470;2023-04-16T04:42:21;14.30;;;7.82;;
67867;SDS011;54672;46.096;14.470;2023-04-16T04:44:47;16.80;;;8.15;;
67867;SDS011;54672;46.096;14.470;2023-04-16T04:47:13;15.88;;;7.60;;
67867;SDS011;54672;46.096;14.470;2023-04-16T04:49:39;17.40;;;8.32;;
67867;SDS011;54672;46.096;14.470;2023-04-16T04:52:05;16.23;;;8.55;;
67867;SDS011;54672;46.096;14.470;2023-04-16T04:54:30;22.17;;;11.05;;
67867;SDS011;54672;46.096;14.470;2023-04-16T04:56:56;28.35;;;12.85;;
67867;SDS011;54672;46.096;14.470;2023-04-16T04:59:22;23.33;;;11.02;;
67867;SDS011;54672;46.096;14.470;2023-04-16T05:01:48;21.42;;;10.93;;
67867;SDS011;54672;46.096;14.470;2023-04-16T05:04:14;17.40;;;9.30;;
67867;SDS011;54672;46.096;14.470;2023-04-16T05:06:39;15.40;;;7.97;;
67867;SDS011;54672;46.096;14.470;2023-04-16T05:09:05;15.55;;;6.72;;
67867;SDS011;54672;46.096;14.470;2023-04-16T05:11:35;11.85;;;6.70;;
67867;SDS011;54672;46.096;14.470;2023-04-16T05:14:02;12.80;;;6.65;;
67867;SDS011;54672;46.096;14.470;2023-04-16T05:16:27;12.02;;;6.15;;
67867;SDS011;54672;46.096;14.470;2023-04-16T05:18:52;13.15;;;6.57;;
67867;SDS011;54672;46.096;14.470;2023-04-16T05:21:20;11.90;;;5.68;;
67867;SDS011;54672;46.096;14.470;2023-04-16T05:23:46;9.68;;;5.53;;
67867;SDS011;54672;46.096;14.470;2023-04-16T05:26:11;11.52;;;6.18;;
67867;SDS011;54672;46.096;14.470;2023-04-16T05:28:36;12.23;;;6.35;;
67867;SDS011;54672;46.096;14.470;2023-04-16T05:31:02;11.52;;;6.15;;
67867;SDS011;54672;46.096;14.470;2023-04-16T05:33:27;13.25;;;6.78;;
67867;SDS011;54672;46.096;14.470;2023-04-16T05:35:53;11.07;;;6.15;;
67867;SDS011;54672;46.096;14.470;2023-04-16T05:38:18;12.10;;;6.60;;
67867;SDS011;54672;46.096;14.470;2023-04-16T05:40:44;11.27;;;6.47;;
67867;SDS011;54672;46.096;14.470;2023-04-16T05:43:09;12.30;;;7.07;;
67867;SDS011;54672;46.096;14.470;2023-04-16T05:45:34;13.73;;;7.35;;
67867;SDS011;54672;46.096;14.470;2023-04-16T05:48:05;13.23;;;6.40;;
67867;SDS011;54672;46.096;14.470;2023-04-16T05:50:32;12.30;;;6.25;;
67867;SDS011;54672;46.096;14.470;2023-04-16T05:52:57;11.45;;;6.15;;
67867;SDS011;54672;46.096;14.470;2023-04-16T05:55:22;13.20;;;6.90;;
67867;SDS011;54672;46.096;14.470;2023-04-16T05:57:48;14.60;;;7.47;;
67867;SDS011;54672;46.096;14.470;2023-04-16T06:00:13;12.55;;;7.47;;
67867;SDS011;54672;46.096;14.470;2023-04-16T06:02:39;12.68;;;7.13;;
67867;SDS011;54672;46.096;14.470;2023-04-16T06:05:05;15.35;;;8.15;;
67867;SDS011;54672;46.096;14.470;2023-04-16T06:07:30;14.70;;;8.10;;
67867;SDS011;54672;46.096;14.470;2023-04-16T06:09:55;14.15;;;7.78;;
67867;SDS011;54672;46.096;14.470;2023-04-16T06:12:21;16.98;;;8.57;;
67867;SDS011;54672;46.096;14.470;2023-04-16T06:14:46;14.70;;;8.15;;
67867;SDS011;54672;46.096;14.470;2023-04-16T06:17:12;12.40;;;7.05;;
67867;SDS011;54672;46.096;14.470;2023-04-16T06:19:37;13.00;;;6.60;;
67867;SDS011;54672;46.096;14.470;2023-04-16T06:22:03;10.73;;;6.57;;
67867;SDS011;54672;46.096;14.470;2023-04-16T06:24:30;12.80;;;7.47;;
67867;SDS011;54672;46.096;14.470;2023-04-16T06:26:55;12.50;;;6.65;;
67867;SDS011;54672;46.096;14.470;2023-04-16T06:29:21;11.57;;;6.30;;
67867;SDS011;54672;46.096;14.470;2023-04-16T06:31:47;11.38;;;6.15;;
67867;SDS011;54672;46.096;14.470;2023-04-16T06:34:13;9.88;;;5.03;;
67867;SDS011;54672;46.096;14.470;2023-04-16T06:36:38;9.82;;;5.57;;
67867;SDS011;54672;46.096;14.470;2023-04-16T06:39:03;15.70;;;6.25;;
67867;SDS011;54672;46.096;14.470;2023-04-16T06:41:29;9.30;;;5.50;;
67867;SDS011;54672;46.096;14.470;2023-04-16T06:43:55;11.82;;;6.32;;
67867;SDS011;54672;46.096;14.470;2023-04-16T06:46:20;9.23;;;5.63;;
67867;SDS011;54672;46.096;14.470;2023-04-16T06:48:45;10.85;;;6.10;;
67867;SDS011;54672;46.096;14.470;2023-04-16T06:51:11;9.02;;;5.40;;
67867;SDS011;54672;46.096;14.470;2023-04-16T06:53:37;9.00;;;5.35;;
67867;SDS011;54672;46.096;14.470;2023-04-16T06:56:02;8.48;;;4.72;;
67867;SDS011;54672;46.096;14.470;2023-04-16T06:58:28;8.45;;;5.00;;
67867;SDS011;54672;46.096;14.470;2023-04-16T07:00:54;8.02;;;4.40;;
67867;SDS011;54672;46.096;14.470;2023-04-16T07:03:19;11.35;;;5.80;;
67867;SDS011;54672;46.096;14.470;2023-04-16T07:05:45;10.90;;;5.35;;
67867;SDS011;54672;46.096;14.470;2023-04-16T07:08:10;11.73;;;6.03;;
67867;SDS011;54672;46.096;14.470;2023-04-16T07:10:36;8.82;;;4.85;;
67867;SDS011;54672;46.096;14.470;2023-04-16T07:13:02;10.15;;;5.25;;
67867;SDS011;54672;46.096;14.470;2023-04-16T07:15:27;8.50;;;5.75;;
67867;SDS011;54672;46.096;14.470;2023-04-16T07:17:53;8.93;;;5.10;;
67867;SDS011;54672;46.096;14.470;2023-04-16T07:20:19;6.82;;;4.50;;
67867;SDS011;54672;46.096;14.470;2023-04-16T07:22:44;9.30;;;4.95;;
67867;SDS011;54672;46.096;14.470;2023-04-16T07:25:10;8.30;;;4.55;;
67867;SDS011;54672;46.096;14.470;2023-04-16T07:27:35;8.75;;;5.18;;
67867;SDS011;54672;46.096;14.470;2023-04-16T07:30:00;8.50;;;3.97;;
67867;SDS011;54672;46.096;14.470;2023-04-16T07:32:26;7.03;;;4.40;;
67867;SDS011;54672;46.096;14.470;2023-04-16T07:34:51;7.75;;;4.32;;
67867;SDS011;54672;46.096;14.470;2023-04-16T07:37:17;7.78;;;4.97;;
67867;SDS011;54672;46.096;14.470;2023-04-16T07:39:42;6.72;;;3.78;;
67867;SDS011;54672;46.096;14.470;2023-04-16T07:42:07;8.10;;;4.18;;
67867;SDS011;54672;46.096;14.470;2023-04-16T07:44:33;7.97;;;4.45;;
67867;SDS011;54672;46.096;14.470;2023-04-16T07:46:58;6.72;;;4.57;;
67867;SDS011;54672;46.096;14.470;2023-04-16T07:49:24;6.60;;;4.13;;
67867;SDS011;54672;46.096;14.470;2023-04-16T07:51:49;5.72;;;3.75;;
67867;SDS011;54672;46.096;14.470;2023-04-16T07:54:15;6.03;;;3.90;;
67867;SDS011;54672;46.096;14.470;2023-04-16T07:56:40;6.32;;;3.78;;
67867;SDS011;54672;46.096;14.470;2023-04-16T07:59:06;7.22;;;3.70;;
67867;SDS011;54672;46.096;14.470;2023-04-16T08:01:31;6.95;;;4.10;;
67867;SDS011;54672;46.096;14.470;2023-04-16T08:03:57;7.18;;;4.43;;
67867;SDS011;54672;46.096;14.470;2023-04-16T08:06:23;6.93;;;3.97;;
67867;SDS011;54672;46.096;14.470;2023-04-16T08:08:49;7.35;;;3.78;;
67867;SDS011;54672;46.096;14.470;2023-04-16T08:11:14;7.05;;;3.92;;
67867;SDS011;54672;46.096;14.470;2023-04-16T08:13:39;6.13;;;3.80;;
67867;SDS011;54672;46.096;14.470;2023-04-16T08:16:05;6.18;;;3.78;;
67867;SDS011;54672;46.096;14.470;2023-04-16T08:18:31;8.73;;;5.00;;
67867;SDS011;54672;46.096;14.470;2023-04-16T08:20:56;8.93;;;4.65;;
67867;SDS011;54672;46.096;14.470;2023-04-16T08:23:22;6.25;;;4.00;;
67867;SDS011;54672;46.096;14.470;2023-04-16T08:25:47;6.03;;;3.42;;
67867;SDS011;54672;46.096;14.470;2023-04-16T08:28:12;7.18;;;4.30;;
67867;SDS011;54672;46.096;14.470;2023-04-16T08:30:38;5.47;;;3.63;;
67867;SDS011;54672;46.096;14.470;2023-04-16T08:33:04;6.82;;;4.20;;
67867;SDS011;54672;46.096;14.470;2023-04-16T08:35:29;7.20;;;4.55;;
67867;SDS011;54672;46.096;14.470;2023-04-16T08:37:55;6.45;;;3.88;;
67867;SDS011;54672;46.096;14.470;2023-04-16T08:40:22;8.27;;;4.88;;
67867;SDS011;54672;46.096;14.470;2023-04-16T08:42:53;8.02;;;4.50;;
67867;SDS011;54672;46.096;14.470;2023-04-16T08:45:22;6.80;;;4.10;;
67867;SDS011;54672;46.096;14.470;2023-04-16T08:47:50;7.93;;;4.30;;
67867;SDS011;54672;46.096;14.470;2023-04-16T08:50:18;7.18;;;4.28;;
67867;SDS011;54672;46.096;14.470;2023-04-16T08:53:06;9.30;;;5.30;;
67867;SDS011;54672;46.096;14.470;2023-04-16T08:55:36;8.57;;;4.72;;
67867;SDS011;54672;46.096;14.470;2023-04-16T08:58:06;11.98;;;4.82;;
67867;SDS011;54672;46.096;14.470;2023-04-16T09:00:36;9.13;;;5.47;;
67867;SDS011;54672;46.096;14.470;2023-04-16T09:03:02;7.82;;;5.13;;
67867;SDS011;54672;46.096;14.470;2023-04-16T09:05:28;9.48;;;5.47;;
67867;SDS011;54672;46.096;14.470;2023-04-16T09:07:55;7.72;;;3.80;;
67867;SDS011;54672;46.096;14.470;2023-04-16T09:10:20;5.28;;;3.35;;
67867;SDS011;54672;46.096;14.470;2023-04-16T09:12:46;7.82;;;3.75;;
67867;SDS011;54672;46.096;14.470;2023-04-16T09:15:12;6.55;;;3.78;;
67867;SDS011;54672;46.096;14.470;2023-04-16T09:17:38;7.88;;;4.43;;
67867;SDS011;54672;46.096;14.470;2023-04-16T09:20:04;7.60;;;4.22;;
67867;SDS011;54672;46.096;14.470;2023-04-16T09:22:32;6.82;;;4.07;;
67867;SDS011;54672;46.096;14.470;2023-04-16T09:24:58;6.07;;;3.60;;
67867;SDS011;54672;46.096;14.470;2023-04-16T09:27:24;6.40;;;3.85;;
67867;SDS011;54672;46.096;14.470;2023-04-16T09:29:49;7.63;;;4.50;;
67867;SDS011;54672;46.096;14.470;2023-04-16T09:32:15;13.38;;;5.97;;
67867;SDS011;54672;46.096;14.470;2023-04-16T09:34:52;7.30;;;3.92;;
67867;SDS011;54672;46.096;14.470;2023-04-16T09:37:25;7.00;;;4.15;;
67867;SDS011;54672;46.096;14.470;2023-04-16T09:39:57;5.15;;;2.35;;
67867;SDS011;54672;46.096;14.470;2023-04-16T09:42:28;4.18;;;2.40;;
67867;SDS011;54672;46.096;14.470;2023-04-16T09:44:56;2.60;;;1.70;;
67867;SDS011;54672;46.096;14.470;2023-04-16T09:47:22;2.42;;;1.55;;
67867;SDS011;54672;46.096;14.470;2023-04-16T09:49:49;5.90;;;3.55;;
67867;SDS011;54672;46.096;14.470;2023-04-16T09:52:16;2.25;;;1.40;;
67867;SDS011;54672;46.096;14.470;2023-04-16T09:54:50;2.25;;;1.80;;
67867;SDS011;54672;46.096;14.470;2023-04-16T09:57:20;2.67;;;1.85;;
67867;SDS011;54672;46.096;14.470;2023-04-16T09:59:47;4.93;;;2.40;;
67867;SDS011;54672;46.096;14.470;2023-04-16T10:02:16;5.18;;;2.13;;
67867;SDS011;54672;46.096;14.470;2023-04-16T10:04:45;4.00;;;2.38;;
67867;SDS011;54672;46.096;14.470;2023-04-16T10:07:15;2.50;;;1.60;;
67867;SDS011;54672;46.096;14.470;2023-04-16T10:09:41;2.95;;;1.73;;
67867;SDS011;54672;46.096;14.470;2023-04-16T10:12:07;4.88;;;2.05;;
67867;SDS011;54672;46.096;14.470;2023-04-16T10:14:33;4.97;;;2.90;;
67867;SDS011;54672;46.096;14.470;2023-04-16T10:16:59;2.85;;;1.92;;
67867;SDS011;54672;46.096;14.470;2023-04-16T10:19:25;3.45;;;2.20;;
67867;SDS011;54672;46.096;14.470;2023-04-16T10:21:52;3.90;;;2.20;;
67867;SDS011;54672;46.096;14.470;2023-04-16T10:24:18;3.03;;;2.00;;
67867;SDS011;54672;46.096;14.470;2023-04-16T10:26:44;4.22;;;2.38;;
67867;SDS011;54672;46.096;14.470;2023-04-16T10:29:13;3.72;;;2.17;;
67867;SDS011;54672;46.096;14.470;2023-04-16T10:31:39;2.30;;;1.50;;
67867;SDS011;54672;46.096;14.470;2023-04-16T10:34:06;2.90;;;1.80;;
67867;SDS011;54672;46.096;14.470;2023-04-16T10:36:36;2.55;;;1.80;;
67867;SDS011;54672;46.096;14.470;2023-04-16T10:39:02;3.45;;;2.00;;
67867;SDS011;54672;46.096;14.470;2023-04-16T10:41:28;2.47;;;1.70;;
67867;SDS011;54672;46.096;14.470;2023-04-16T10:44:03;2.85;;;1.88;;
67867;SDS011;54672;46.096;14.470;2023-04-16T10:49:19;2.10;;;1.40;;
67867;SDS011;54672;46.096;14.470;2023-04-16T10:51:52;2.03;;;1.52;;
67867;SDS011;54672;46.096;14.470;2023-04-16T10:54:20;2.55;;;1.60;;
67867;SDS011;54672;46.096;14.470;2023-04-16T10:56:51;3.22;;;1.40;;
67867;SDS011;54672;46.096;14.470;2023-04-16T10:59:18;2.05;;;1.55;;
67867;SDS011;54672;46.096;14.470;2023-04-16T11:01:46;2.45;;;1.30;;
67867;SDS011;54672;46.096;14.470;2023-04-16T11:07:00;2.47;;;1.52;;
67867;SDS011;54672;46.096;14.470;2023-04-16T11:12:12;2.25;;;1.52;;
67867;SDS011;54672;46.096;14.470;2023-04-16T11:14:40;2.38;;;1.60;;
67867;SDS011;54672;46.096;14.470;2023-04-16T11:17:06;4.85;;;1.60;;
67867;SDS011;54672;46.096;14.470;2023-04-16T11:19:32;2.65;;;1.55;;
67867;SDS011;54672;46.096;14.470;2023-04-16T11:22:01;3.25;;;1.60;;
67867;SDS011;54672;46.096;14.470;2023-04-16T11:24:30;6.20;;;2.13;;
67867;SDS011;54672;46.096;14.470;2023-04-16T11:26:56;2.05;;;1.40;;
67867;SDS011;54672;46.096;14.470;2023-04-16T11:29:21;2.30;;;1.38;;
67867;SDS011;54672;46.096;14.470;2023-04-16T11:31:53;2.03;;;1.33;;
67867;SDS011;54672;46.096;14.470;2023-04-16T11:34:19;3.47;;;1.70;;
67867;SDS011;54672;46.096;14.470;2023-04-16T11:36:45;4.95;;;1.90;;
67867;SDS011;54672;46.096;14.470;2023-04-16T11:39:12;3.63;;;1.70;;
67867;SDS011;54672;46.096;14.470;2023-04-16T11:41:49;2.90;;;1.40;;
67867;SDS011;54672;46.096;14.470;2023-04-16T11:44:19;2.47;;;1.65;;
67867;SDS011;54672;46.096;14.470;2023-04-16T11:46:46;2.28;;;1.50;;
67867;SDS011;54672;46.096;14.470;2023-04-16T11:49:12;2.15;;;1.33;;
67867;SDS011;54672;46.096;14.470;2023-04-16T11:51:45;1.90;;;1.25;;
67867;SDS011;54672;46.096;14.470;2023-04-16T11:54:18;2.30;;;1.40;;
67867;SDS011;54672;46.096;14.470;2023-04-16T11:56:45;2.00;;;1.35;;
67867;SDS011;54672;46.096;14.470;2023-04-16T12:01:48;2.05;;;1.33;;
67867;SDS011;54672;46.096;14.470;2023-04-16T12:04:16;2.50;;;1.42;;
67867;SDS011;54672;46.096;14.470;2023-04-16T12:09:31;1.50;;;1.08;;
67867;SDS011;54672;46.096;14.470;2023-04-16T12:11:59;4.03;;;2.20;;
67867;SDS011;54672;46.096;14.470;2023-04-16T12:14:25;2.50;;;1.67;;
67867;SDS011;54672;46.096;14.470;2023-04-16T12:16:50;3.85;;;1.27;;
67867;SDS011;54672;46.096;14.470;2023-04-16T12:19:16;1.88;;;0.98;;
67867;SDS011;54672;46.096;14.470;2023-04-16T12:21:46;0.70;;;0.70;;
67867;SDS011;54672;46.096;14.470;2023-04-16T12:24:14;1.40;;;0.90;;
67867;SDS011;54672;46.096;14.470;2023-04-16T12:29:16;0.90;;;0.65;;
67867;SDS011;54672;46.096;14.470;2023-04-16T12:31:47;1.35;;;0.80;;
67867;SDS011;54672;46.096;14.470;2023-04-16T12:34:14;2.10;;;0.90;;
67867;SDS011;54672;46.096;14.470;2023-04-16T12:36:40;1.63;;;1.00;;
67867;SDS011;54672;46.096;14.470;2023-04-16T12:39:06;1.52;;;0.95;;
67867;SDS011;54672;46.096;14.470;2023-04-16T12:41:34;1.15;;;0.82;;
67867;SDS011;54672;46.096;14.470;2023-04-16T12:46:34;2.03;;;0.90;;
67867;SDS011;54672;46.096;14.470;2023-04-16T12:49:01;1.25;;;0.80;;
67867;SDS011;54672;46.096;14.470;2023-04-16T12:51:26;2.15;;;1.23;;
67867;SDS011;54672;46.096;14.470;2023-04-16T12:53:52;1.90;;;1.20;;
67867;SDS011;54672;46.096;14.470;2023-04-16T12:56:18;1.00;;;0.70;;
67867;SDS011;54672;46.096;14.470;2023-04-16T12:58:44;1.35;;;0.90;;
67867;SDS011;54672;46.096;14.470;2023-04-16T13:01:09;2.72;;;1.30;;
67867;SDS011;54672;46.096;14.470;2023-04-16T13:03:36;0.82;;;0.60;;
67867;SDS011;54672;46.096;14.470;2023-04-16T13:06:01;1.20;;;0.75;;
67867;SDS011;54672;46.096;14.470;2023-04-16T13:08:28;1.15;;;0.70;;
67867;SDS011;54672;46.096;14.470;2023-04-16T13:10:53;2.00;;;1.20;;
67867;SDS011;54672;46.096;14.470;2023-04-16T13:13:19;2.40;;;0.82;;
67867;SDS011;54672;46.096;14.470;2023-04-16T13:15:45;2.55;;;1.50;;
67867;SDS011;54672;46.096;14.470;2023-04-16T13:18:10;1.83;;;1.02;;
67867;SDS011;54672;46.096;14.470;2023-04-16T13:20:36;2.15;;;1.40;;
67867;SDS011;54672;46.096;14.470;2023-04-16T13:23:01;3.10;;;1.70;;
67867;SDS011;54672;46.096;14.470;2023-04-16T13:25:29;2.42;;;1.30;;
67867;SDS011;54672;46.096;14.470;2023-04-16T13:27:55;2.70;;;1.38;;
67867;SDS011;54672;46.096;14.470;2023-04-16T13:30:20;2.28;;;1.58;;
67867;SDS011;54672;46.096;14.470;2023-04-16T13:32:46;2.22;;;1.45;;
67867;SDS011;54672;46.096;14.470;2023-04-16T13:35:11;2.60;;;1.60;;
67867;SDS011;54672;46.096;14.470;2023-04-16T13:37:37;2.45;;;1.40;;
67867;SDS011;54672;46.096;14.470;2023-04-16T13:40:02;3.13;;;1.80;;
67867;SDS011;54672;46.096;14.470;2023-04-16T13:42:28;2.60;;;1.63;;
67867;SDS011;54672;46.096;14.470;2023-04-16T13:44:53;3.47;;;1.80;;
67867;SDS011;54672;46.096;14.470;2023-04-16T13:47:19;2.88;;;1.60;;
67867;SDS011;54672;46.096;14.470;2023-04-16T13:49:44;3.30;;;1.40;;
67867;SDS011;54672;46.096;14.470;2023-04-16T13:52:11;3.17;;;1.90;;
67867;SDS011;54672;46.096;14.470;2023-04-16T13:54:37;2.15;;;1.50;;
67867;SDS011;54672;46.096;14.470;2023-04-16T13:57:02;3.00;;;1.60;;
67867;SDS011;54672;46.096;14.470;2023-04-16T13:59:27;3.53;;;1.50;;
67867;SDS011;54672;46.096;14.470;2023-04-16T14:01:53;2.97;;;1.88;;
67867;SDS011;54672;46.096;14.470;2023-04-16T14:04:18;2.17;;;1.48;;
67867;SDS011;54672;46.096;14.470;2023-04-16T14:06:46;3.22;;;1.70;;
67867;SDS011;54672;46.096;14.470;2023-04-16T14:09:13;2.63;;;1.40;;
67867;SDS011;54672;46.096;14.470;2023-04-16T14:11:38;2.42;;;1.52;;
67867;SDS011;54672;46.096;14.470;2023-04-16T14:14:04;2.20;;;1.63;;
67867;SDS011;54672;46.096;14.470;2023-04-16T14:16:29;2.10;;;1.38;;
67867;SDS011;54672;46.096;14.470;2023-04-16T14:18:54;2.63;;;1.63;;
67867;SDS011;54672;46.096;14.470;2023-04-16T14:21:20;2.92;;;1.77;;
67867;SDS011;54672;46.096;14.470;2023-04-16T14:23:46;2.25;;;1.58;;
67867;SDS011;54672;46.096;14.470;2023-04-16T14:26:11;2.95;;;1.80;;
67867;SDS011;54672;46.096;14.470;2023-04-16T14:28:37;2.80;;;1.80;;
67867;SDS011;54672;46.096;14.470;2023-04-16T14:31:03;3.00;;;1.90;;
67867;SDS011;54672;46.096;14.470;2023-04-16T14:33:28;2.53;;;1.80;;
67867;SDS011;54672;46.096;14.470;2023-04-16T14:35:55;2.83;;;1.88;;
67867;SDS011;54672;46.096;14.470;2023-04-16T14:38:20;2.75;;;1.85;;
67867;SDS011;54672;46.096;14.470;2023-04-16T14:40:46;3.50;;;2.10;;